sensor_id;sensor_type;location;lat;lon;timestamp;pressure;altitude;pressure_sealevel;temperature;humidity
11349;BME280;5729;43.570;27.826;2023-02-03T00:00:26;99107.53;;;2.05;100.00
11349;BME280;5729;43.570;27.826;2023-02-03T00:02:53;99107.47;;;1.97;100.00
11349;BME280;5729;43.570;27.826;2023-02-03T00:05:19;99116.53;;;1.96;100.00
11349;BME280;5729;43.570;27.826;2023-02-03T00:07:45;99114.09;;;1.86;100.00
11349;BME280;5729;43.570;27.826;2023-02-03T00:10:11;99114.66;;;1.96;100.00
11349;BME280;5729;43.570;27.826;2023-02-03T00:12:36;99121.84;;;1.96;100.00
11349;BME280;5729;43.570;27.826;2023-02-03T00:15:02;99120.09;;;1.91;100.00
11349;BME280;5729;43.570;27.826;2023-02-03T00:17:27;99124.91;;;2.03;100.00
11349;BME280;5729;43.570;27.826;2023-02-03T00:19:53;99116.50;;;2.09;100.00
11349;BME280;5729;43.570;27.826;2023-02-03T00:22:18;99131.47;;;2.05;100.00
11349;BME280;5729;43.570;27.826;2023-02-03T00:24:44;99122.25;;;2.03;100.00
11349;BME280;5729;43.570;27.826;2023-02-03T00:27:09;99122.25;;;2.03;100.00
11349;BME280;5729;43.570;27.826;2023-02-03T00:29:34;99135.53;;;2.03;100.00
11349;BME280;5729;43.570;27.826;2023-02-03T00:32:00;99130.22;;;2.03;100.00
11349;BME280;5729;43.570;27.826;2023-02-03T00:34:29;99134.81;;;2.11;100.00
11349;BME280;5729;43.570;27.826;2023-02-03T00:36:55;99136.41;;;2.12;100.00
11349;BME280;5729;43.570;27.826;2023-02-03T00:39:20;99134.81;;;2.11;100.00
11349;BME280;5729;43.570;27.826;2023-02-03T00:41:46;99143.88;;;2.10;100.00
11349;BME280;5729;43.570;27.826;2023-02-03T00:44:12;99142.19;;;2.14;100.00
11349;BME280;5729;43.570;27.826;2023-02-03T00:46:37;99142.97;;;2.14;100.00
11349;BME280;5729;43.570;27.826;2023-02-03T00:49:04;99136.19;;;2.08;100.00
11349;BME280;5729;43.570;27.826;2023-02-03T00:51:29;99149.69;;;2.12;100.00
11349;BME280;5729;43.570;27.826;2023-02-03T00:53:55;99136.78;;;2.05;100.00
11349;BME280;5729;43.570;27.826;2023-02-03T00:56:20;99134.13;;;2.05;100.00
11349;BME280;5729;43.570;27.826;2023-02-03T00:58:46;99131.59;;;2.00;100.00
11349;BME280;5729;43.570;27.826;2023-02-03T01:01:11;99133.63;;;2.03;100.00
11349;BME280;5729;43.570;27.826;2023-02-03T01:03:37;99126.19;;;1.92;100.00
11349;BME280;5729;43.570;27.826;2023-02-03T01:06:15;99141.00;;;2.06;100.00
11349;BME280;5729;43.570;27.826;2023-02-03T01:08:41;99144.75;;;2.05;100.00
11349;BME280;5729;43.570;27.826;2023-02-03T01:11:13;99127.16;;;1.96;100.00
11349;BME280;5729;43.570;27.826;2023-02-03T01:13:39;99128.44;;;1.98;100.00
11349;BME280;5729;43.570;27.826;2023-02-03T01:16:09;99137.00;;;1.95;100.00
11349;BME280;5729;43.570;27.826;2023-02-03T01:18:34;99131.09;;;1.85;100.00
11349;BME280;5729;43.570;27.826;2023-02-03T01:21:08;99134.53;;;1.99;100.00
11349;BME280;5729;43.570;27.826;2023-02-03T01:23:35;99134.53;;;1.99;100.00
11349;BME280;5729;43.570;27.826;2023-02-03T01:26:03;99140.66;;;1.99;100.00
11349;BME280;5729;43.570;27.826;2023-02-03T01:28:28;99140.16;;;1.97;100.00
11349;BME280;5729;43.570;27.826;2023-02-03T01:30:54;99139.06;;;1.85;100.00
11349;BME280;5729;43.570;27.826;2023-02-03T01:33:19;99138.50;;;1.88;100.00
11349;BME280;5729;43.570;27.826;2023-02-03T01:35:45;99143.00;;;2.01;100.00
11349;BME280;5729;43.570;27.826;2023-02-03T01:38:10;99148.22;;;1.92;100.00
11349;BME280;5729;43.570;27.826;2023-02-03T01:40:42;99155.53;;;1.87;100.00
11349;BME280;5729;43.570;27.826;2023-02-03T01:43:09;99149.91;;;1.88;100.00
11349;BME280;5729;43.570;27.826;2023-02-03T01:45:35;99149.50;;;1.81;100.00
11349;BME280;5729;43.570;27.826;2023-02-03T01:48:02;99154.72;;;1.86;100.00
11349;BME280;5729;43.570;27.826;2023-02-03T01:50:33;99152.94;;;1.81;100.00
11349;BME280;5729;43.570;27.826;2023-02-03T01:53:06;99163.47;;;2.00;100.00
11349;BME280;5729;43.570;27.826;2023-02-03T01:55:43;99161.13;;;1.99;100.00
11349;BME280;5729;43.570;27.826;2023-02-03T01:58:23;99156.00;;;2.02;100.00
11349;BME280;5729;43.570;27.826;2023-02-03T02:00:51;99166.34;;;1.90;100.00
11349;BME280;5729;43.570;27.826;2023-02-03T02:03:23;99164.28;;;1.87;100.00
11349;BME280;5729;43.570;27.826;2023-02-03T02:06:10;99167.59;;;1.93;100.00
11349;BME280;5729;43.570;27.826;2023-02-03T02:08:36;99169.47;;;1.92;100.00
11349;BME280;5729;43.570;27.826;2023-02-03T02:11:04;99170.69;;;1.86;100.00
11349;BME280;5729;43.570;27.826;2023-02-03T02:13:33;99162.63;;;1.77;100.00
11349;BME280;5729;43.570;27.826;2023-02-03T02:16:10;99169.59;;;2.01;100.00
11349;BME280;5729;43.570;27.826;2023-02-03T02:19:43;99167.53;;;1.84;100.00
11349;BME280;5729;43.570;27.826;2023-02-03T02:22:18;99171.84;;;1.94;100.00
11349;BME280;5729;43.570;27.826;2023-02-03T02:35:38;99184.97;;;1.90;100.00
11349;BME280;5729;43.570;27.826;2023-02-03T02:44:15;99188.09;;;1.92;100.00
11349;BME280;5729;43.570;27.826;2023-02-03T02:46:47;99188.19;;;1.87;100.00
11349;BME280;5729;43.570;27.826;2023-02-03T02:49:35;99201.38;;;1.92;100.00
11349;BME280;5729;43.570;27.826;2023-02-03T02:52:04;99189.19;;;1.91;100.00
11349;BME280;5729;43.570;27.826;2023-02-03T02:54:32;99203.75;;;1.94;100.00
11349;BME280;5729;43.570;27.826;2023-02-03T02:57:03;99203.84;;;1.89;100.00
11349;BME280;5729;43.570;27.826;2023-02-03T02:59:29;99206.81;;;1.87;100.00
11349;BME280;5729;43.570;27.826;2023-02-03T03:01:55;99207.78;;;1.77;100.00
11349;BME280;5729;43.570;27.826;2023-02-03T03:04:24;99194.88;;;1.85;100.00
11349;BME280;5729;43.570;27.826;2023-02-03T03:09:39;99185.16;;;1.80;100.00
11349;BME280;5729;43.570;27.826;2023-02-03T03:14:39;99179.59;;;2.04;100.00
11349;BME280;5729;43.570;27.826;2023-02-03T03:17:07;99182.59;;;2.02;100.00
11349;BME280;5729;43.570;27.826;2023-02-03T03:19:38;99170.38;;;2.01;100.00
11349;BME280;5729;43.570;27.826;2023-02-03T03:22:08;99168.00;;;2.00;100.00
11349;BME280;5729;43.570;27.826;2023-02-03T03:24:44;99161.81;;;1.91;100.00
11349;BME280;5729;43.570;27.826;2023-02-03T03:27:14;99163.91;;;1.80;100.00
11349;BME280;5729;43.570;27.826;2023-02-03T03:29:48;99170.28;;;1.79;100.00
11349;BME280;5729;43.570;27.826;2023-02-03T03:32:15;99170.88;;;1.62;100.00
11349;BME280;5729;43.570;27.826;2023-02-03T03:34:41;99174.81;;;1.65;100.00
11349;BME280;5729;43.570;27.826;2023-02-03T03:38:05;99179.84;;;1.66;100.00
11349;BME280;5729;43.570;27.826;2023-02-03T03:40:44;99183.38;;;1.62;100.00
11349;BME280;5729;43.570;27.826;2023-02-03T03:43:18;99179.53;;;1.68;100.00
11349;BME280;5729;43.570;27.826;2023-02-03T03:48:20;99190.94;;;1.55;100.00
11349;BME280;5729;43.570;27.826;2023-02-03T03:50:57;99189.88;;;1.56;100.00
11349;BME280;5729;43.570;27.826;2023-02-03T03:53:26;99187.38;;;1.59;100.00
11349;BME280;5729;43.570;27.826;2023-02-03T03:55:53;99190.16;;;1.54;100.00
11349;BME280;5729;43.570;27.826;2023-02-03T03:58:25;99198.94;;;1.68;100.00
11349;BME280;5729;43.570;27.826;2023-02-03T04:00:56;99193.03;;;1.58;100.00
11349;BME280;5729;43.570;27.826;2023-02-03T04:03:29;99192.22;;;1.43;100.00
11349;BME280;5729;43.570;27.826;2023-02-03T04:05:56;99206.16;;;1.49;100.00
11349;BME280;5729;43.570;27.826;2023-02-03T04:08:22;99208.03;;;1.49;100.00
11349;BME280;5729;43.570;27.826;2023-02-03T04:10:47;99205.00;;;1.55;100.00
11349;BME280;5729;43.570;27.826;2023-02-03T04:13:13;99210.97;;;1.47;100.00
11349;BME280;5729;43.570;27.826;2023-02-03T04:15:40;99197.88;;;1.37;100.00
11349;BME280;5729;43.570;27.826;2023-02-03T04:18:05;99211.28;;;1.32;100.00
11349;BME280;5729;43.570;27.826;2023-02-03T04:20:32;99211.88;;;1.42;100.00
11349;BME280;5729;43.570;27.826;2023-02-03T04:22:58;99210.50;;;1.45;100.00
11349;BME280;5729;43.570;27.826;2023-02-03T04:25:24;99216.41;;;1.42;100.00
11349;BME280;5729;43.570;27.826;2023-02-03T04:27:50;99222.91;;;1.50;100.00
11349;BME280;5729;43.570;27.826;2023-02-03T04:30:16;99218.41;;;1.18;100.00
11349;BME280;5729;43.570;27.826;2023-02-03T04:32:43;99227.50;;;1.30;100.00
11349;BME280;5729;43.570;27.826;2023-02-03T04:35:09;99232.28;;;1.28;100.00
11349;BME280;5729;43.570;27.826;2023-02-03T04:37:34;99233.88;;;1.29;100.00
11349;BME280;5729;43.570;27.826;2023-02-03T04:40:00;99232.88;;;1.25;100.00
11349;BME280;5729;43.570;27.826;2023-02-03T04:42:25;99236.13;;;1.22;100.00
11349;BME280;5729;43.570;27.826;2023-02-03T04:44:51;99229.31;;;1.16;100.00
11349;BME280;5729;43.570;27.826;2023-02-03T04:47:17;99237.38;;;1.25;100.00
11349;BME280;5729;43.570;27.826;2023-02-03T04:49:43;99246.34;;;1.29;100.00
11349;BME280;5729;43.570;27.826;2023-02-03T04:52:09;99249.53;;;1.31;100.00
11349;BME280;5729;43.570;27.826;2023-02-03T04:54:34;99252.53;;;1.24;100.00
11349;BME280;5729;43.570;27.826;2023-02-03T04:57:00;99261.09;;;1.21;100.00
11349;BME280;5729;43.570;27.826;2023-02-03T04:59:25;99264.25;;;1.23;100.00
11349;BME280;5729;43.570;27.826;2023-02-03T05:01:51;99253.47;;;1.15;100.00
11349;BME280;5729;43.570;27.826;2023-02-03T05:04:16;99242.69;;;1.11;100.00
11349;BME280;5729;43.570;27.826;2023-02-03T05:06:42;99257.22;;;1.14;100.00
11349;BME280;5729;43.570;27.826;2023-02-03T05:09:08;99257.72;;;1.16;100.00
11349;BME280;5729;43.570;27.826;2023-02-03T05:11:33;99251.09;;;0.99;100.00
11349;BME280;5729;43.570;27.826;2023-02-03T05:13:58;99257.22;;;1.14;100.00
11349;BME280;5729;43.570;27.826;2023-02-03T05:16:24;99275.31;;;1.12;100.00
11349;BME280;5729;43.570;27.826;2023-02-03T05:18:49;99278.09;;;1.20;100.00
11349;BME280;5729;43.570;27.826;2023-02-03T05:21:15;99291.25;;;1.12;100.00
11349;BME280;5729;43.570;27.826;2023-02-03T05:23:40;99293.13;;;1.11;100.00
11349;BME280;5729;43.570;27.826;2023-02-03T05:26:06;99291.09;;;1.03;100.00
11349;BME280;5729;43.570;27.826;2023-02-03T05:28:31;99289.31;;;0.98;100.00
11349;BME280;5729;43.570;27.826;2023-02-03T05:30:58;99296.03;;;1.09;100.00
11349;BME280;5729;43.570;27.826;2023-02-03T05:33:24;99294.81;;;1.02;100.00
11349;BME280;5729;43.570;27.826;2023-02-03T05:35:49;99280.19;;;1.04;100.00
11349;BME280;5729;43.570;27.826;2023-02-03T05:38:15;99295.91;;;1.20;100.00
11349;BME280;5729;43.570;27.826;2023-02-03T05:40:40;99298.91;;;1.13;100.00
11349;BME280;5729;43.570;27.826;2023-02-03T05:43:24;99300.91;;;1.21;100.00
11349;BME280;5729;43.570;27.826;2023-02-03T05:45:51;99297.97;;;1.23;100.00
11349;BME280;5729;43.570;27.826;2023-02-03T05:48:16;99276.91;;;1.13;100.00
11349;BME280;5729;43.570;27.826;2023-02-03T05:50:41;99290.81;;;1.23;100.00
11349;BME280;5729;43.570;27.826;2023-02-03T05:53:07;99293.16;;;1.25;100.00
11349;BME280;5729;43.570;27.826;2023-02-03T05:55:33;99297.03;;;1.14;100.00
11349;BME280;5729;43.570;27.826;2023-02-03T05:57:58;99309.16;;;1.20;100.00
11349;BME280;5729;43.570;27.826;2023-02-03T06:00:25;99305.34;;;1.26;100.00
11349;BME280;5729;43.570;27.826;2023-02-03T06:02:55;99308.16;;;1.16;100.00
11349;BME280;5729;43.570;27.826;2023-02-03T06:05:22;99327.09;;;1.28;100.00
11349;BME280;5729;43.570;27.826;2023-02-03T06:07:48;99331.66;;;1.41;100.00
11349;BME280;5729;43.570;27.826;2023-02-03T06:10:14;99331.66;;;1.41;100.00
11349;BME280;5729;43.570;27.826;2023-02-03T06:12:41;99331.72;;;1.55;100.00
11349;BME280;5729;43.570;27.826;2023-02-03T06:15:07;99345.50;;;1.57;100.00
11349;BME280;5729;43.570;27.826;2023-02-03T06:17:32;99335.69;;;1.57;100.00
11349;BME280;5729;43.570;27.826;2023-02-03T06:19:58;99332.84;;;1.67;100.00
11349;BME280;5729;43.570;27.826;2023-02-03T06:22:23;99327.91;;;1.61;100.00
11349;BME280;5729;43.570;27.826;2023-02-03T06:24:49;99333.31;;;1.69;100.00
11349;BME280;5729;43.570;27.826;2023-02-03T06:27:14;99313.91;;;1.55;100.00
11349;BME280;5729;43.570;27.826;2023-02-03T06:29:41;99327.72;;;1.57;100.00
11349;BME280;5729;43.570;27.826;2023-02-03T06:32:07;99333.94;;;1.66;100.00
11349;BME280;5729;43.570;27.826;2023-02-03T06:34:32;99334.91;;;1.70;100.00
11349;BME280;5729;43.570;27.826;2023-02-03T06:36:58;99339.53;;;1.65;100.00
11349;BME280;5729;43.570;27.826;2023-02-03T06:39:23;99343.31;;;1.77;100.00
11349;BME280;5729;43.570;27.826;2023-02-03T06:41:49;99341.06;;;1.85;100.00
11349;BME280;5729;43.570;27.826;2023-02-03T06:44:16;99345.50;;;1.89;100.00
11349;BME280;5729;43.570;27.826;2023-02-03T06:46:42;99362.25;;;2.03;100.00
11349;BME280;5729;43.570;27.826;2023-02-03T06:49:07;99357.84;;;2.12;100.00
11349;BME280;5729;43.570;27.826;2023-02-03T06:51:33;99357.84;;;2.26;100.00
11349;BME280;5729;43.570;27.826;2023-02-03T06:53:58;99359.63;;;2.17;100.00
11349;BME280;5729;43.570;27.826;2023-02-03T06:56:24;99358.84;;;2.30;100.00
11349;BME280;5729;43.570;27.826;2023-02-03T06:58:49;99352.63;;;2.21;100.00
11349;BME280;5729;43.570;27.826;2023-02-03T07:01:15;99359.06;;;2.34;100.00
11349;BME280;5729;43.570;27.826;2023-02-03T07:03:40;99349.09;;;2.39;100.00
11349;BME280;5729;43.570;27.826;2023-02-03T07:06:06;99364.78;;;2.54;100.00
11349;BME280;5729;43.570;27.826;2023-02-03T07:08:32;99363.41;;;2.57;100.00
11349;BME280;5729;43.570;27.826;2023-02-03T07:10:57;99363.41;;;2.71;100.00
11349;BME280;5729;43.570;27.826;2023-02-03T07:13:22;99369.09;;;2.64;100.00
11349;BME280;5729;43.570;27.826;2023-02-03T07:15:48;99376.09;;;2.74;100.00
11349;BME280;5729;43.570;27.826;2023-02-03T07:18:13;99383.47;;;2.77;100.00
11349;BME280;5729;43.570;27.826;2023-02-03T07:20:39;99398.94;;;2.88;100.00
11349;BME280;5729;43.570;27.826;2023-02-03T07:23:05;99399.16;;;2.92;100.00
11349;BME280;5729;43.570;27.826;2023-02-03T07:25:30;99404.56;;;3.01;100.00
11349;BME280;5729;43.570;27.826;2023-02-03T07:27:56;99406.94;;;3.02;100.00
11349;BME280;5729;43.570;27.826;2023-02-03T07:30:21;99411.56;;;2.97;100.00
11349;BME280;5729;43.570;27.826;2023-02-03T07:32:51;99413.41;;;3.10;100.00
11349;BME280;5729;43.570;27.826;2023-02-03T07:35:17;99398.66;;;3.04;100.00
11349;BME280;5729;43.570;27.826;2023-02-03T07:37:43;99398.03;;;3.07;100.00
11349;BME280;5729;43.570;27.826;2023-02-03T07:40:10;99391.53;;;2.99;100.00
11349;BME280;5729;43.570;27.826;2023-02-03T07:42:40;99380.00;;;3.04;100.00
11349;BME280;5729;43.570;27.826;2023-02-03T07:45:06;99399.09;;;3.19;100.00
11349;BME280;5729;43.570;27.826;2023-02-03T07:47:32;99413.78;;;3.17;100.00
11349;BME280;5729;43.570;27.826;2023-02-03T07:49:57;99406.38;;;3.27;100.00
11349;BME280;5729;43.570;27.826;2023-02-03T07:52:23;99427.81;;;3.22;100.00
11349;BME280;5729;43.570;27.826;2023-02-03T07:54:48;99407.38;;;3.18;100.00
11349;BME280;5729;43.570;27.826;2023-02-03T07:57:14;99423.31;;;3.45;100.00
11349;BME280;5729;43.570;27.826;2023-02-03T07:59:39;99429.09;;;4.67;100.00
11349;BME280;5729;43.570;27.826;2023-02-03T08:02:05;99420.19;;;7.20;100.00
11349;BME280;5729;43.570;27.826;2023-02-03T08:04:30;99428.56;;;10.28;100.00
11349;BME280;5729;43.570;27.826;2023-02-03T08:06:55;99414.28;;;12.83;100.00
11349;BME280;5729;43.570;27.826;2023-02-03T08:09:21;99414.81;;;14.97;77.10
11349;BME280;5729;43.570;27.826;2023-02-03T08:11:46;99428.72;;;17.00;59.85
11349;BME280;5729;43.570;27.826;2023-02-03T08:14:13;99431.88;;;18.77;48.30
11349;BME280;5729;43.570;27.826;2023-02-03T08:16:38;99438.88;;;19.64;42.65
11349;BME280;5729;43.570;27.826;2023-02-03T08:19:03;99433.50;;;21.18;40.90
11349;BME280;5729;43.570;27.826;2023-02-03T08:21:29;99440.25;;;21.96;36.25
11349;BME280;5729;43.570;27.826;2023-02-03T08:23:56;99448.78;;;21.82;35.67
11349;BME280;5729;43.570;27.826;2023-02-03T08:26:21;99446.72;;;22.41;34.90
11349;BME280;5729;43.570;27.826;2023-02-03T08:28:48;99440.44;;;22.25;34.82
11349;BME280;5729;43.570;27.826;2023-02-03T08:31:14;99442.25;;;23.86;33.31
11349;BME280;5729;43.570;27.826;2023-02-03T08:33:39;99432.97;;;24.22;31.43
11349;BME280;5729;43.570;27.826;2023-02-03T08:36:05;99441.13;;;24.51;30.43
11349;BME280;5729;43.570;27.826;2023-02-03T08:38:32;99447.75;;;23.86;30.65
11349;BME280;5729;43.570;27.826;2023-02-03T08:40:57;99454.06;;;24.00;30.50
11349;BME280;5729;43.570;27.826;2023-02-03T08:43:23;99457.53;;;24.42;30.36
11349;BME280;5729;43.570;27.826;2023-02-03T08:45:48;99448.41;;;24.70;29.32
11349;BME280;5729;43.570;27.826;2023-02-03T08:48:14;99449.78;;;24.11;29.41
11349;BME280;5729;43.570;27.826;2023-02-03T08:50:41;99456.75;;;23.00;30.69
11349;BME280;5729;43.570;27.826;2023-02-03T08:53:07;99462.94;;;22.88;30.40
11349;BME280;5729;43.570;27.826;2023-02-03T08:55:33;99461.00;;;22.69;31.48
11349;BME280;5729;43.570;27.826;2023-02-03T08:57:58;99452.13;;;23.26;30.37
11349;BME280;5729;43.570;27.826;2023-02-03T09:00:24;99453.06;;;23.94;30.26
11349;BME280;5729;43.570;27.826;2023-02-03T09:02:51;99458.44;;;24.26;29.51
11349;BME280;5729;43.570;27.826;2023-02-03T09:05:17;99456.06;;;23.41;30.27
11349;BME280;5729;43.570;27.826;2023-02-03T09:07:43;99462.25;;;24.92;29.63
11349;BME280;5729;43.570;27.826;2023-02-03T09:10:09;99451.25;;;24.79;27.99
11349;BME280;5729;43.570;27.826;2023-02-03T09:12:34;99455.56;;;24.93;28.55
11349;BME280;5729;43.570;27.826;2023-02-03T09:15:00;99461.31;;;25.20;28.62
11349;BME280;5729;43.570;27.826;2023-02-03T09:17:25;99465.00;;;24.92;28.71
11349;BME280;5729;43.570;27.826;2023-02-03T09:19:52;99470.63;;;24.12;28.67
11349;BME280;5729;43.570;27.826;2023-02-03T09:22:17;99472.19;;;24.77;28.27
11349;BME280;5729;43.570;27.826;2023-02-03T09:24:43;99480.81;;;23.99;28.54
11349;BME280;5729;43.570;27.826;2023-02-03T09:27:08;99463.38;;;24.82;27.69
11349;BME280;5729;43.570;27.826;2023-02-03T09:29:34;99467.16;;;23.96;29.33
11349;BME280;5729;43.570;27.826;2023-02-03T09:31:59;99457.78;;;23.51;30.21
11349;BME280;5729;43.570;27.826;2023-02-03T09:34:31;99468.81;;;22.70;30.68
11349;BME280;5729;43.570;27.826;2023-02-03T09:36:56;99469.78;;;22.80;30.62
11349;BME280;5729;43.570;27.826;2023-02-03T09:39:21;99484.47;;;20.08;32.69
11349;BME280;5729;43.570;27.826;2023-02-03T09:45:21;99471.16;;;20.90;32.07
11349;BME280;5729;43.570;27.826;2023-02-03T09:47:31;99462.72;;;19.97;33.63
11349;BME280;5729;43.570;27.826;2023-02-03T09:50:06;99476.50;;;19.52;34.15
11349;BME280;5729;43.570;27.826;2023-02-03T09:52:37;99459.09;;;20.61;33.74
11349;BME280;5729;43.570;27.826;2023-02-03T09:57:36;99448.22;;;21.04;33.14
11349;BME280;5729;43.570;27.826;2023-02-03T10:00:15;99448.44;;;21.99;31.79
11349;BME280;5729;43.570;27.826;2023-02-03T10:02:58;99448.06;;;20.91;32.71
11349;BME280;5729;43.570;27.826;2023-02-03T10:08:09;99448.91;;;22.14;30.80
11349;BME280;5729;43.570;27.826;2023-02-03T10:10:48;99452.16;;;22.09;30.84
11349;BME280;5729;43.570;27.826;2023-02-03T10:16:55;99444.25;;;20.85;31.72
11349;BME280;5729;43.570;27.826;2023-02-03T10:19:48;99445.44;;;20.84;31.93
11349;BME280;5729;43.570;27.826;2023-02-03T10:22:22;99444.28;;;21.52;31.39
11349;BME280;5729;43.570;27.826;2023-02-03T10:25:07;99442.41;;;21.45;31.15
11349;BME280;5729;43.570;27.826;2023-02-03T10:27:41;99443.78;;;21.96;30.07
11349;BME280;5729;43.570;27.826;2023-02-03T10:30:23;99438.19;;;22.88;29.56
11349;BME280;5729;43.570;27.826;2023-02-03T10:32:54;99445.84;;;22.28;29.52
11349;BME280;5729;43.570;27.826;2023-02-03T10:35:30;99434.75;;;22.16;29.75
11349;BME280;5729;43.570;27.826;2023-02-03T10:37:58;99438.13;;;22.39;30.19
11349;BME280;5729;43.570;27.826;2023-02-03T10:40:25;99453.34;;;21.68;30.77
11349;BME280;5729;43.570;27.826;2023-02-03T10:42:51;99444.19;;;21.95;30.45
11349;BME280;5729;43.570;27.826;2023-02-03T10:45:37;99441.63;;;22.24;29.71
11349;BME280;5729;43.570;27.826;2023-02-03T10:48:04;99440.47;;;22.73;29.81
11349;BME280;5729;43.570;27.826;2023-02-03T10:50:31;99438.00;;;20.85;30.49
11349;BME280;5729;43.570;27.826;2023-02-03T10:53:25;99437.44;;;22.19;29.48
11349;BME280;5729;43.570;27.826;2023-02-03T10:56:13;99431.59;;;20.14;31.67
11349;BME280;5729;43.570;27.826;2023-02-03T10:58:50;99438.78;;;20.85;31.69
11349;BME280;5729;43.570;27.826;2023-02-03T11:01:18;99427.91;;;21.01;31.34
11349;BME280;5729;43.570;27.826;2023-02-03T11:04:01;99418.31;;;21.13;31.28
11349;BME280;5729;43.570;27.826;2023-02-03T11:06:31;99413.97;;;21.39;30.87
11349;BME280;5729;43.570;27.826;2023-02-03T11:08:57;99430.13;;;20.33;31.43
11349;BME280;5729;43.570;27.826;2023-02-03T11:11:32;99426.75;;;17.19;36.08
11349;BME280;5729;43.570;27.826;2023-02-03T11:16:29;99425.84;;;19.37;34.51
11349;BME280;5729;43.570;27.826;2023-02-03T11:23:50;99427.47;;;18.38;35.71
11349;BME280;5729;43.570;27.826;2023-02-03T11:26:20;99415.19;;;18.05;36.49
11349;BME280;5729;43.570;27.826;2023-02-03T11:28:49;99410.84;;;19.18;35.07
11349;BME280;5729;43.570;27.826;2023-02-03T11:31:18;99392.88;;;18.76;34.44
11349;BME280;5729;43.570;27.826;2023-02-03T11:33:54;99420.06;;;17.45;35.42
11349;BME280;5729;43.570;27.826;2023-02-03T11:36:21;99425.41;;;15.85;37.77
11349;BME280;5729;43.570;27.826;2023-02-03T11:38:46;99421.88;;;15.08;40.38
11349;BME280;5729;43.570;27.826;2023-02-03T11:41:17;99424.78;;;14.78;40.24
11349;BME280;5729;43.570;27.826;2023-02-03T11:43:43;99432.75;;;13.57;43.30
11349;BME280;5729;43.570;27.826;2023-02-03T11:46:09;99425.69;;;12.73;47.78
11349;BME280;5729;43.570;27.826;2023-02-03T11:48:36;99419.50;;;12.95;51.49
11349;BME280;5729;43.570;27.826;2023-02-03T11:54:27;99414.59;;;15.99;42.94
11349;BME280;5729;43.570;27.826;2023-02-03T12:02:49;99414.63;;;13.61;47.85
11349;BME280;5729;43.570;27.826;2023-02-03T12:12:30;99402.28;;;14.78;47.29
11349;BME280;5729;43.570;27.826;2023-02-03T12:20:29;99411.56;;;13.62;48.52
11349;BME280;5729;43.570;27.826;2023-02-03T12:23:03;99408.69;;;13.81;47.62
11349;BME280;5729;43.570;27.826;2023-02-03T12:31:03;99398.00;;;12.34;47.93
11349;BME280;5729;43.570;27.826;2023-02-03T12:33:39;99402.41;;;12.00;48.70
11349;BME280;5729;43.570;27.826;2023-02-03T12:36:12;99411.78;;;11.87;51.46
11349;BME280;5729;43.570;27.826;2023-02-03T12:41:22;99410.56;;;10.95;54.44
11349;BME280;5729;43.570;27.826;2023-02-03T12:43:52;99409.03;;;10.94;56.68
11349;BME280;5729;43.570;27.826;2023-02-03T12:46:31;99410.59;;;10.64;60.64
11349;BME280;5729;43.570;27.826;2023-02-03T12:51:41;99405.91;;;10.45;58.01
11349;BME280;5729;43.570;27.826;2023-02-03T12:57:26;99397.41;;;10.59;57.77
11349;BME280;5729;43.570;27.826;2023-02-03T13:03:19;99394.75;;;10.15;64.67
11349;BME280;5729;43.570;27.826;2023-02-03T13:05:55;99381.00;;;10.04;65.63
11349;BME280;5729;43.570;27.826;2023-02-03T13:08:34;99395.13;;;10.45;68.22
11349;BME280;5729;43.570;27.826;2023-02-03T13:11:14;99396.69;;;10.46;67.70
11349;BME280;5729;43.570;27.826;2023-02-03T13:14:02;99385.88;;;10.14;68.09
11349;BME280;5729;43.570;27.826;2023-02-03T13:16:34;99374.22;;;9.67;73.00
11349;BME280;5729;43.570;27.826;2023-02-03T13:19:17;99388.88;;;9.29;80.38
11349;BME280;5729;43.570;27.826;2023-02-03T13:21:49;99382.53;;;9.22;83.27
11349;BME280;5729;43.570;27.826;2023-02-03T13:24:14;99388.56;;;9.31;88.01
11349;BME280;5729;43.570;27.826;2023-02-03T13:26:56;99384.53;;;9.25;87.92
11349;BME280;5729;43.570;27.826;2023-02-03T13:40:29;99385.03;;;9.02;100.00
11349;BME280;5729;43.570;27.826;2023-02-03T13:43:04;99384.78;;;8.95;100.00
11349;BME280;5729;43.570;27.826;2023-02-03T13:45:46;99382.56;;;8.49;100.00
11349;BME280;5729;43.570;27.826;2023-02-03T13:48:16;99370.97;;;8.24;100.00
11349;BME280;5729;43.570;27.826;2023-02-03T13:50:44;99378.19;;;8.44;100.00
11349;BME280;5729;43.570;27.826;2023-02-03T13:53:19;99386.16;;;8.53;100.00
11349;BME280;5729;43.570;27.826;2023-02-03T13:55:56;99387.72;;;8.54;100.00
11349;BME280;5729;43.570;27.826;2023-02-03T13:58:38;99388.50;;;8.54;100.00
11349;BME280;5729;43.570;27.826;2023-02-03T14:03:50;99386.03;;;8.61;100.00
11349;BME280;5729;43.570;27.826;2023-02-03T14:08:59;99384.34;;;8.45;100.00
11349;BME280;5729;43.570;27.826;2023-02-03T14:16:49;99385.41;;;8.19;100.00
11349;BME280;5729;43.570;27.826;2023-02-03T14:21:56;99382.13;;;8.14;100.00
11349;BME280;5729;43.570;27.826;2023-02-03T14:24:29;99383.03;;;8.18;100.00
11349;BME280;5729;43.570;27.826;2023-02-03T14:26:57;99380.56;;;8.13;100.00
11349;BME280;5729;43.570;27.826;2023-02-03T14:29:28;99390.31;;;8.17;100.00
11349;BME280;5729;43.570;27.826;2023-02-03T14:32:02;99391.56;;;8.20;100.00
11349;BME280;5729;43.570;27.826;2023-02-03T14:34:43;99394.22;;;8.20;100.00
11349;BME280;5729;43.570;27.826;2023-02-03T15:00:08;99399.84;;;7.19;100.00
11349;BME280;5729;43.570;27.826;2023-02-03T15:05:38;99407.72;;;6.95;100.00
11349;BME280;5729;43.570;27.826;2023-02-03T15:11:31;99396.78;;;7.00;100.00
11349;BME280;5729;43.570;27.826;2023-02-03T15:16:46;99405.50;;;6.97;100.00
11349;BME280;5729;43.570;27.826;2023-02-03T15:19:18;99395.16;;;6.87;100.00
11349;BME280;5729;43.570;27.826;2023-02-03T15:21:45;99396.44;;;6.81;100.00
11349;BME280;5729;43.570;27.826;2023-02-03T15:24:18;99392.00;;;6.85;100.00
11349;BME280;5729;43.570;27.826;2023-02-03T15:26:57;99401.41;;;6.62;100.00
11349;BME280;5729;43.570;27.826;2023-02-03T15:29:28;99392.13;;;6.59;100.00